createdAt,value
2017-11-07T00:00:21.170Z,58.10
2017-11-07T00:02:48.640Z,58.20
2017-11-07T00:05:16.107Z,58.10
2017-11-07T00:07:43.569Z,58.20
2017-11-07T00:10:11.795Z,58.40
2017-11-07T00:12:40.014Z,58.20
2017-11-07T00:15:07.487Z,58.10
2017-11-07T00:17:34.934Z,58.20
2017-11-07T00:20:02.405Z,58.20
2017-11-07T00:22:35.687Z,58.10
2017-11-07T00:25:03.162Z,58.20
2017-11-07T00:27:30.610Z,58.80
2017-11-07T00:29:58.073Z,58.20
2017-11-07T00:32:25.534Z,58.20
2017-11-07T00:34:52.994Z,58.10
2017-11-07T00:37:20.485Z,58.20
2017-11-07T00:39:47.940Z,58.20
2017-11-07T00:42:16.158Z,58.20
2017-11-07T00:44:43.607Z,58.10
2017-11-07T00:47:11.822Z,58.30
2017-11-07T00:49:39.278Z,58.30
2017-11-07T00:52:06.740Z,58.30
2017-11-07T00:54:34.957Z,58.20
2017-11-07T00:57:02.438Z,58.20
2017-11-07T00:59:29.907Z,58.30
2017-11-07T01:01:58.143Z,58.30
2017-11-07T01:04:25.618Z,58.30
2017-11-07T01:06:53.833Z,58.30
2017-11-07T01:09:22.062Z,58.60
2017-11-07T01:11:49.521Z,58.40
2017-11-07T01:14:17.751Z,58.50
2017-11-07T01:16:45.971Z,58.30
2017-11-07T01:19:13.442Z,58.30
2017-11-07T01:21:40.895Z,58.30
2017-11-07T01:24:08.348Z,58.30
2017-11-07T01:26:35.802Z,58.40
2017-11-07T01:29:03.263Z,58.40
2017-11-07T01:31:31.481Z,58.40
2017-11-07T01:33:59.707Z,58.90
2017-11-07T01:36:27.171Z,58.30
2017-11-07T01:38:54.630Z,58.30
2017-11-07T01:41:22.862Z,58.50
2017-11-07T01:43:51.090Z,58.60
2017-11-07T01:46:18.542Z,58.60
2017-11-07T01:48:46.816Z,58.60
2017-11-07T01:51:14.267Z,58.60
2017-11-07T01:53:41.733Z,58.40
2017-11-07T01:56:09.185Z,58.30
2017-11-07T01:58:37.409Z,58.60
2017-11-07T02:01:04.862Z,58.60
2017-11-07T02:03:33.079Z,58.50
2017-11-07T02:06:00.534Z,58.50
2017-11-07T02:08:27.984Z,58.50
2017-11-07T02:10:55.446Z,58.60
2017-11-07T02:13:22.905Z,58.60
2017-11-07T02:15:50.366Z,58.70
2017-11-07T02:18:17.817Z,58.60
2017-11-07T02:20:45.277Z,58.50
2017-11-07T02:23:12.735Z,58.60
2017-11-07T02:25:40.188Z,58.80
2017-11-07T02:28:07.641Z,58.70
2017-11-07T02:30:35.110Z,58.80
2017-11-07T02:33:02.562Z,58.80
2017-11-07T02:35:30.036Z,58.70
2017-11-07T02:37:57.493Z,58.80
2017-11-07T02:40:25.711Z,58.80
2017-11-07T02:42:53.930Z,58.70
2017-11-07T02:45:21.401Z,58.70
2017-11-07T02:47:48.862Z,58.70
2017-11-07T02:50:16.318Z,58.70
2017-11-07T02:52:43.771Z,58.60
2017-11-07T02:55:11.254Z,58.60
2017-11-07T02:57:39.466Z,58.70
2017-11-07T03:00:06.919Z,58.70
2017-11-07T03:02:35.145Z,58.70
2017-11-07T03:05:03.371Z,59.60
2017-11-07T03:07:30.831Z,58.80
2017-11-07T03:09:59.045Z,58.80
2017-11-07T03:12:26.515Z,58.70
2017-11-07T03:14:53.987Z,58.80
2017-11-07T03:17:22.227Z,58.90
2017-11-07T03:19:49.674Z,58.90
2017-11-07T03:22:17.139Z,58.80
2017-11-07T03:24:44.585Z,58.80
2017-11-07T03:27:12.050Z,58.80
2017-11-07T03:29:39.494Z,58.90
2017-11-07T03:32:06.978Z,58.90
2017-11-07T03:34:34.430Z,59.00
2017-11-07T03:37:01.876Z,58.90
2017-11-07T03:39:29.338Z,58.90
2017-11-07T03:41:56.798Z,59.00
2017-11-07T03:44:24.254Z,58.80
2017-11-07T03:46:51.705Z,58.80
2017-11-07T03:49:19.161Z,59.40
2017-11-07T03:51:47.387Z,58.90
2017-11-07T03:54:15.610Z,58.90
2017-11-07T03:56:43.069Z,59.00
2017-11-07T03:59:10.525Z,59.00
2017-11-07T04:01:37.987Z,59.00
2017-11-07T04:04:05.466Z,59.00
2017-11-07T04:06:32.914Z,59.00
2017-11-07T04:09:00.374Z,58.90
2017-11-07T04:11:27.834Z,58.90
2017-11-07T04:13:55.281Z,58.90
2017-11-07T04:16:22.766Z,58.90
2017-11-07T04:18:50.217Z,59.00
2017-11-07T04:21:17.683Z,59.20
2017-11-07T04:23:45.158Z,59.20
2017-11-07T04:26:13.404Z,59.40
2017-11-07T04:28:40.860Z,59.30
2017-11-07T04:31:08.323Z,59.50
2017-11-07T04:33:35.776Z,59.50
2017-11-07T04:36:03.999Z,59.60
2017-11-07T04:38:31.445Z,59.50
2017-11-07T04:40:59.674Z,59.80
2017-11-07T04:43:27.134Z,59.80
2017-11-07T04:45:54.592Z,59.80
2017-11-07T04:48:22.042Z,59.90
2017-11-07T04:50:50.341Z,60.00
2017-11-07T04:53:17.806Z,60.00
2017-11-07T04:55:45.264Z,59.90
2017-11-07T04:58:12.750Z,60.00
2017-11-07T05:00:40.968Z,60.20
2017-11-07T05:03:09.185Z,60.20
2017-11-07T05:05:37.409Z,60.30
2017-11-07T05:08:04.865Z,60.20
2017-11-07T05:10:32.315Z,60.30
2017-11-07T05:13:00.538Z,60.50
2017-11-07T05:15:27.990Z,60.70
2017-11-07T05:17:55.456Z,60.50
2017-11-07T05:20:22.910Z,60.60
2017-11-07T05:22:51.134Z,60.60
2017-11-07T05:25:19.363Z,60.60
2017-11-07T05:27:46.814Z,60.40
2017-11-07T05:30:14.285Z,60.50
2017-11-07T05:32:42.518Z,60.70
2017-11-07T05:35:10.738Z,60.70
2017-11-07T05:37:38.978Z,60.70
2017-11-07T05:40:06.429Z,60.70
2017-11-07T05:42:33.889Z,60.70
2017-11-07T05:45:01.331Z,60.70
2017-11-07T05:47:28.799Z,60.70
2017-11-07T05:49:56.260Z,60.70
2017-11-07T05:52:23.710Z,60.70
2017-11-07T05:54:51.158Z,60.60
2017-11-07T05:57:18.633Z,60.70
2017-11-07T05:59:46.085Z,60.50
2017-11-07T06:02:13.538Z,60.60
2017-11-07T06:04:41.006Z,60.50
2017-11-07T06:07:09.226Z,60.70
2017-11-07T06:09:36.685Z,60.70
2017-11-07T06:12:04.178Z,60.70
2017-11-07T06:14:31.651Z,60.70
2017-11-07T06:16:59.103Z,60.70
2017-11-07T06:19:26.561Z,60.70
2017-11-07T06:21:54.013Z,60.70
2017-11-07T06:24:21.475Z,60.90
2017-11-07T06:26:48.943Z,60.70
2017-11-07T06:29:16.404Z,60.80
2017-11-07T06:31:43.859Z,60.70
2017-11-07T06:34:11.313Z,60.90
2017-11-07T06:36:38.768Z,60.80
2017-11-07T06:39:06.223Z,60.80
2017-11-07T06:41:33.667Z,61.00
2017-11-07T06:44:01.109Z,60.90
2017-11-07T06:46:28.585Z,61.00
2017-11-07T06:48:56.027Z,61.00
2017-11-07T06:51:23.483Z,60.80
2017-11-07T06:53:50.941Z,60.90
2017-11-07T06:56:19.194Z,60.90
2017-11-07T06:58:47.405Z,61.00
2017-11-07T07:01:14.866Z,60.90
2017-11-07T07:03:42.321Z,61.00
2017-11-07T07:06:09.782Z,61.10
2017-11-07T07:08:37.237Z,61.00
2017-11-07T07:11:04.701Z,61.00
2017-11-07T07:13:32.150Z,61.00
2017-11-07T07:15:59.617Z,61.00
2017-11-07T07:18:27.839Z,60.90
2017-11-07T07:20:56.051Z,61.00
2017-11-07T07:23:23.518Z,61.00
2017-11-07T07:25:50.965Z,60.90
2017-11-07T07:28:18.434Z,61.10
2017-11-07T07:30:45.880Z,61.00
2017-11-07T07:33:13.350Z,61.10
2017-11-07T07:35:40.796Z,61.00
2017-11-07T07:38:09.020Z,61.30
2017-11-07T07:40:37.274Z,61.20
2017-11-07T07:43:04.732Z,61.20
2017-11-07T07:45:32.179Z,61.30
2017-11-07T07:47:59.642Z,61.30
2017-11-07T07:50:27.106Z,61.30
2017-11-07T07:52:56.065Z,61.20
2017-11-07T07:55:23.538Z,61.20
2017-11-07T07:57:51.013Z,61.20
2017-11-07T08:00:18.556Z,61.20
2017-11-07T08:02:46.026Z,61.20
2017-11-07T08:05:14.272Z,61.40
2017-11-07T08:07:41.739Z,61.40
2017-11-07T08:10:09.190Z,61.40
2017-11-07T08:12:36.661Z,61.20
2017-11-07T08:15:04.117Z,61.20
2017-11-07T08:17:31.578Z,61.20
2017-11-07T08:19:59.044Z,61.40
2017-11-07T08:22:26.493Z,61.50
2017-11-07T08:24:54.014Z,61.40
2017-11-07T08:27:21.450Z,61.30
2017-11-07T08:29:49.690Z,61.40
2017-11-07T08:32:17.131Z,61.40
2017-11-07T08:34:44.606Z,61.40
2017-11-07T08:37:12.059Z,61.30
2017-11-07T08:39:40.281Z,61.20
2017-11-07T08:42:07.736Z,61.20
2017-11-07T08:44:36.024Z,61.20
2017-11-07T08:47:03.483Z,61.10
2017-11-07T08:49:31.717Z,61.20
2017-11-07T08:51:59.181Z,61.20
2017-11-07T08:54:26.630Z,61.20
2017-11-07T08:56:54.099Z,61.10
2017-11-07T08:59:21.541Z,61.50
2017-11-07T09:01:48.997Z,61.30
2017-11-07T09:04:17.218Z,61.00
2017-11-07T09:06:44.670Z,61.00
2017-11-07T09:09:12.903Z,61.20
2017-11-07T09:11:40.361Z,61.20
2017-11-07T09:14:07.817Z,61.00
2017-11-07T09:16:37.101Z,60.90
2017-11-07T09:19:06.276Z,61.00
2017-11-07T09:21:38.461Z,60.80
2017-11-07T09:24:06.184Z,61.20
2017-11-07T09:29:13.878Z,61.50
2017-11-07T09:31:43.070Z,61.50
2017-11-07T09:34:12.221Z,61.60
2017-11-07T09:36:41.416Z,61.50
2017-11-07T09:41:59.321Z,61.30
2017-11-07T09:44:29.410Z,61.90
2017-11-07T09:49:36.796Z,61.40
2017-11-07T09:52:04.264Z,61.70
2017-11-07T09:54:31.717Z,61.90
2017-11-07T09:56:59.942Z,62.10
2017-11-07T09:59:27.395Z,62.10
2017-11-07T10:01:54.863Z,61.70
2017-11-07T10:04:23.822Z,61.90
2017-11-07T10:06:52.083Z,61.90
2017-11-07T10:09:19.584Z,61.90
2017-11-07T10:11:47.040Z,62.10
2017-11-07T10:14:15.262Z,62.20
2017-11-07T10:16:43.490Z,62.50
2017-11-07T10:19:11.729Z,62.50
2017-11-07T10:21:39.216Z,62.40
2017-11-07T10:24:06.679Z,62.40
2017-11-07T10:26:34.130Z,62.80
2017-11-07T10:29:01.586Z,62.80
2017-11-07T10:31:30.667Z,62.60
2017-11-07T10:33:58.136Z,62.80
2017-11-07T10:36:25.590Z,63.50
2017-11-07T10:38:53.074Z,62.90
2017-11-07T10:41:21.295Z,63.20
2017-11-07T10:43:48.764Z,63.10
2017-11-07T10:46:16.210Z,63.40
2017-11-07T10:48:43.682Z,63.50
2017-11-07T10:51:11.136Z,63.60
2017-11-07T10:53:38.583Z,63.40
2017-11-07T10:56:06.034Z,63.30
2017-11-07T10:58:33.527Z,63.20
2017-11-07T11:01:00.976Z,63.30
2017-11-07T11:03:28.441Z,63.20
2017-11-07T11:05:55.897Z,63.30
2017-11-07T11:08:23.356Z,63.40
2017-11-07T11:10:50.824Z,63.50
2017-11-07T11:13:18.279Z,63.20
2017-11-07T11:15:45.738Z,63.30
2017-11-07T11:18:13.201Z,63.50
2017-11-07T11:20:41.439Z,63.20
2017-11-07T11:23:09.663Z,63.30
2017-11-07T11:25:37.891Z,63.30
2017-11-07T11:28:05.351Z,63.30
2017-11-07T11:30:32.830Z,63.40
2017-11-07T11:33:00.278Z,63.30
2017-11-07T11:35:27.746Z,63.30
2017-11-07T11:37:55.208Z,63.20
2017-11-07T11:40:22.697Z,63.40
2017-11-07T11:42:50.150Z,63.50
2017-11-07T11:45:17.613Z,63.40
2017-11-07T11:47:45.062Z,63.40
2017-11-07T11:50:12.524Z,63.70
2017-11-07T11:52:40.744Z,64.30
2017-11-07T11:55:08.244Z,63.50
2017-11-07T11:57:36.470Z,63.60
2017-11-07T12:00:03.964Z,63.50
2017-11-07T12:02:32.226Z,63.90
2017-11-07T12:04:59.704Z,63.90
2017-11-07T12:07:27.934Z,63.90
2017-11-07T12:09:55.390Z,63.90
2017-11-07T12:12:22.847Z,63.70
2017-11-07T12:14:50.307Z,63.60
2017-11-07T12:17:17.789Z,63.80
2017-11-07T12:19:45.242Z,63.80
2017-11-07T12:22:12.712Z,63.90
2017-11-07T12:24:40.173Z,63.80
2017-11-07T12:27:07.634Z,63.70
2017-11-07T12:29:35.857Z,63.80
2017-11-07T12:32:03.342Z,63.90
2017-11-07T12:34:30.795Z,63.70
2017-11-07T12:36:58.261Z,63.60
2017-11-07T12:39:26.482Z,63.40
2017-11-07T12:41:53.967Z,63.40
2017-11-07T12:44:21.422Z,63.30
2017-11-07T12:46:48.898Z,63.30
2017-11-07T12:49:17.114Z,64.20
2017-11-07T12:51:57.046Z,63.40
2017-11-07T12:54:24.493Z,63.40
2017-11-07T12:56:51.959Z,63.40
2017-11-07T12:59:19.422Z,63.40
2017-11-07T13:01:47.653Z,63.30
2017-11-07T13:04:15.098Z,63.30
2017-11-07T13:06:42.538Z,63.20
2017-11-07T13:09:10.025Z,63.20
2017-11-07T13:11:37.470Z,63.40
2017-11-07T13:14:04.964Z,63.40
2017-11-07T13:16:32.424Z,63.40
2017-11-07T13:18:59.892Z,63.60
2017-11-07T13:21:28.119Z,63.60
2017-11-07T13:23:55.569Z,63.50
2017-11-07T13:26:23.029Z,63.60
2017-11-07T13:28:50.490Z,63.60
2017-11-07T13:31:17.948Z,63.60
2017-11-07T13:33:45.418Z,63.80
2017-11-07T13:36:12.888Z,63.60
2017-11-07T13:38:40.369Z,63.50
2017-11-07T13:41:07.814Z,63.90
2017-11-07T13:43:35.272Z,63.20
2017-11-07T13:46:04.262Z,63.30
2017-11-07T13:48:31.742Z,63.20
2017-11-07T13:50:59.986Z,63.10
2017-11-07T13:53:27.463Z,63.10
2017-11-07T13:55:55.720Z,63.30
2017-11-07T13:58:23.198Z,63.30
2017-11-07T14:00:50.646Z,63.30
2017-11-07T14:03:18.118Z,63.40
2017-11-07T14:05:45.565Z,63.50
2017-11-07T14:08:13.043Z,63.40
2017-11-07T14:10:41.253Z,63.50
2017-11-07T14:13:08.737Z,63.40
2017-11-07T14:15:36.984Z,64.40
2017-11-07T14:18:04.472Z,63.70
2017-11-07T14:20:31.919Z,63.60
2017-11-07T14:22:59.404Z,63.50
2017-11-07T14:25:26.859Z,63.60
2017-11-07T14:27:54.317Z,63.70
2017-11-07T14:30:21.774Z,63.80
2017-11-07T14:32:49.237Z,63.80
2017-11-07T14:35:16.688Z,63.90
2017-11-07T14:37:44.188Z,64.00
2017-11-07T14:40:11.628Z,64.40
2017-11-07T14:42:39.881Z,64.00
2017-11-07T14:45:07.339Z,64.00
2017-11-07T14:47:34.789Z,64.00
2017-11-07T14:50:02.253Z,63.90
2017-11-07T14:52:29.713Z,63.80
2017-11-07T14:54:57.947Z,64.00
2017-11-07T14:57:25.426Z,64.00
2017-11-07T14:59:52.881Z,63.80
2017-11-07T15:02:20.341Z,63.80
2017-11-07T15:04:47.786Z,63.90
2017-11-07T15:07:16.004Z,64.00
2017-11-07T15:09:44.222Z,63.90
2017-11-07T15:12:11.703Z,63.80
2017-11-07T15:14:39.179Z,63.90
2017-11-07T15:17:06.624Z,64.00
2017-11-07T15:19:34.089Z,63.80
2017-11-07T15:22:02.305Z,63.90
2017-11-07T15:24:29.794Z,63.90
2017-11-07T15:26:58.017Z,63.90
2017-11-07T15:29:26.236Z,64.00
2017-11-07T15:31:53.691Z,64.00
2017-11-07T15:34:21.134Z,63.90
2017-11-07T15:36:48.594Z,63.90
2017-11-07T15:39:16.045Z,63.90
2017-11-07T15:41:43.508Z,63.90
2017-11-07T15:44:10.961Z,64.70
2017-11-07T15:46:38.426Z,64.00
2017-11-07T15:49:05.888Z,63.80
2017-11-07T15:51:33.350Z,63.90
2017-11-07T15:54:01.569Z,63.90
2017-11-07T15:56:29.029Z,63.90
2017-11-07T15:58:56.494Z,63.90
2017-11-07T16:01:23.950Z,63.80
2017-11-07T16:03:51.413Z,63.80
2017-11-07T16:06:19.632Z,63.90
2017-11-07T16:08:47.089Z,63.90
2017-11-07T16:11:14.589Z,63.90
2017-11-07T16:13:42.071Z,63.90
2017-11-07T16:16:10.285Z,63.90
2017-11-07T16:18:37.742Z,63.80
2017-11-07T16:21:05.958Z,63.80
2017-11-07T16:23:33.421Z,63.80
2017-11-07T16:26:00.871Z,63.60
2017-11-07T16:28:28.348Z,63.70
2017-11-07T16:30:56.562Z,63.70
2017-11-07T16:33:24.011Z,63.60
2017-11-07T16:35:51.477Z,63.80
2017-11-07T16:38:19.691Z,63.70
2017-11-07T16:40:47.261Z,63.80
2017-11-07T16:43:15.490Z,63.80
2017-11-07T16:45:42.949Z,63.80
2017-11-07T16:48:10.409Z,63.90
2017-11-07T16:50:38.629Z,63.80
2017-11-07T16:53:06.846Z,64.00
2017-11-07T16:55:34.301Z,64.00
2017-11-07T16:58:02.578Z,63.90
2017-11-07T17:00:30.055Z,64.60
2017-11-07T17:02:57.507Z,64.00
2017-11-07T17:05:24.981Z,63.90
2017-11-07T17:07:52.437Z,63.90
2017-11-07T17:10:19.896Z,64.10
2017-11-07T17:12:48.126Z,64.00
2017-11-07T17:15:16.346Z,64.10
2017-11-07T17:17:44.583Z,64.10
2017-11-07T17:20:12.802Z,64.00
2017-11-07T17:22:40.262Z,63.90
2017-11-07T17:25:07.713Z,64.10
2017-11-07T17:27:35.947Z,64.10
2017-11-07T17:30:03.390Z,64.00
2017-11-07T17:32:30.857Z,64.10
2017-11-07T17:34:59.090Z,64.30
2017-11-07T17:37:27.325Z,64.20
2017-11-07T17:39:54.787Z,64.10
2017-11-07T17:42:22.238Z,64.10
2017-11-07T17:44:49.726Z,64.10
2017-11-07T17:47:17.178Z,64.30
2017-11-07T17:49:44.647Z,64.80
2017-11-07T17:52:13.600Z,64.20
2017-11-07T17:54:41.062Z,64.00
2017-11-07T17:57:08.518Z,64.30
2017-11-07T17:59:35.980Z,64.30
2017-11-07T18:02:04.185Z,64.20
2017-11-07T18:04:31.662Z,64.20
2017-11-07T18:06:59.890Z,64.10
2017-11-07T18:09:27.337Z,64.10
2017-11-07T18:11:54.808Z,64.20
2017-11-07T18:14:22.260Z,64.30
2017-11-07T18:16:50.494Z,64.60
2017-11-07T18:19:18.742Z,64.70
2017-11-07T18:21:46.186Z,64.60
2017-11-07T18:24:13.653Z,64.40
2017-11-07T18:26:41.118Z,64.40
2017-11-07T18:29:08.586Z,64.40
2017-11-07T18:31:36.034Z,64.50
2017-11-07T18:34:03.498Z,64.50
2017-11-07T18:36:30.962Z,64.50
2017-11-07T18:38:59.260Z,64.60
2017-11-07T18:41:27.474Z,64.70
2017-11-07T18:43:54.936Z,64.70
2017-11-07T18:46:23.159Z,64.60
2017-11-07T18:48:50.607Z,64.60
2017-11-07T18:51:18.840Z,64.60
2017-11-07T18:53:47.054Z,64.50
2017-11-07T18:56:15.288Z,65.10
2017-11-07T18:58:42.797Z,65.10
2017-11-07T19:01:11.013Z,64.70
2017-11-07T19:03:38.466Z,64.80
2017-11-07T19:06:05.998Z,65.60
2017-11-07T19:08:33.526Z,64.50
2017-11-07T19:11:01.013Z,64.80
2017-11-07T19:13:28.488Z,64.90
2017-11-07T19:15:56.703Z,64.60
2017-11-07T19:18:24.188Z,64.60
2017-11-07T19:20:52.457Z,64.40
2017-11-07T19:23:20.715Z,64.10
2017-11-07T19:25:48.177Z,64.10
2017-11-07T19:28:15.637Z,63.70
2017-11-07T19:30:44.590Z,64.40
2017-11-07T19:33:12.074Z,64.40
2017-11-07T19:35:39.527Z,63.90
2017-11-07T19:38:07.751Z,64.20
2017-11-07T19:40:35.990Z,64.00
2017-11-07T19:43:03.442Z,63.90
2017-11-07T19:45:30.898Z,65.20
2017-11-07T19:47:59.861Z,64.20
2017-11-07T19:50:27.326Z,64.00
2017-11-07T19:52:54.786Z,63.40
2017-11-07T19:55:22.269Z,64.50
2017-11-07T19:57:49.768Z,64.50
2017-11-07T20:00:17.257Z,64.80
2017-11-07T20:02:45.479Z,63.80
2017-11-07T20:05:13.727Z,64.30
2017-11-07T20:07:41.193Z,64.50
2017-11-07T20:10:08.663Z,64.20
2017-11-07T20:12:36.128Z,63.90
2017-11-07T20:15:04.379Z,63.50
2017-11-07T20:17:31.829Z,63.50
2017-11-07T20:20:00.054Z,63.90
2017-11-07T20:22:27.511Z,64.10
2017-11-07T20:24:54.970Z,64.70
2017-11-07T20:27:22.457Z,65.60
2017-11-07T20:29:49.918Z,64.70
2017-11-07T20:32:17.378Z,64.80
2017-11-07T20:34:44.857Z,64.10
2017-11-07T20:37:12.327Z,64.30
2017-11-07T20:39:39.820Z,63.80
2017-11-07T20:42:07.293Z,64.60
2017-11-07T20:44:34.761Z,63.50
2017-11-07T20:47:03.050Z,63.30
2017-11-07T20:49:30.512Z,63.30
2017-11-07T20:51:58.143Z,63.40
2017-11-07T20:54:25.618Z,65.00
2017-11-07T20:56:53.084Z,64.60
2017-11-07T20:59:20.535Z,64.40
2017-11-07T21:01:48.191Z,63.10
2017-11-07T21:04:15.680Z,62.70
2017-11-07T21:06:43.938Z,63.80
2017-11-07T21:09:11.440Z,63.80
2017-11-07T21:11:38.962Z,63.80
2017-11-07T21:14:06.435Z,63.70
2017-11-07T21:16:33.963Z,65.30
2017-11-07T21:19:01.436Z,63.60
2017-11-07T21:21:28.907Z,64.00
2017-11-07T21:23:56.370Z,65.10
2017-11-07T21:26:23.838Z,64.60
2017-11-07T21:28:51.301Z,63.80
2017-11-07T21:31:18.765Z,63.30
2017-11-07T21:33:47.002Z,63.20
2017-11-07T21:36:14.451Z,63.20
2017-11-07T21:38:41.908Z,63.90
2017-11-07T21:41:09.452Z,63.90
2017-11-07T21:43:36.952Z,63.90
2017-11-07T21:46:04.420Z,63.50
2017-11-07T21:48:31.876Z,64.40
2017-11-07T21:51:00.094Z,63.60
2017-11-07T21:53:27.550Z,63.20
2017-11-07T21:55:55.010Z,62.30
2017-11-07T21:58:22.468Z,63.50
2017-11-07T22:00:49.922Z,64.00
2017-11-07T22:03:17.382Z,64.30
2017-11-07T22:05:44.847Z,65.30
2017-11-07T22:08:12.302Z,64.20
2017-11-07T22:10:39.768Z,63.50
2017-11-07T22:13:07.221Z,63.40
2017-11-07T22:15:34.681Z,63.40
2017-11-07T22:18:07.870Z,63.40
2017-11-07T22:20:38.916Z,62.90
2017-11-07T22:23:12.208Z,63.70
2017-11-07T22:25:39.695Z,64.30
2017-11-07T22:28:07.890Z,63.80
2017-11-07T22:30:36.105Z,63.10
2017-11-07T22:33:03.557Z,63.00
2017-11-07T22:35:31.008Z,63.50
2017-11-07T22:37:58.466Z,63.10
2017-11-07T22:40:26.683Z,63.20
2017-11-07T22:42:54.141Z,63.20
2017-11-07T22:45:21.607Z,63.00
2017-11-07T22:47:49.058Z,62.20
2017-11-07T22:50:16.514Z,62.90
2017-11-07T22:52:43.989Z,63.10
2017-11-07T22:55:12.217Z,63.30
2017-11-07T22:57:39.682Z,63.30
2017-11-07T23:00:07.135Z,62.80
2017-11-07T23:02:35.358Z,62.40
2017-11-07T23:05:06.439Z,61.80
2017-11-07T23:07:33.925Z,61.70
2017-11-07T23:10:01.386Z,61.40
2017-11-07T23:12:28.842Z,61.90
2017-11-07T23:14:56.302Z,61.90
2017-11-07T23:17:24.837Z,61.80
2017-11-07T23:19:53.069Z,62.70
2017-11-07T23:22:20.688Z,62.30
2017-11-07T23:24:48.900Z,61.60
2017-11-07T23:27:16.350Z,61.60
2017-11-07T23:29:43.809Z,62.50
2017-11-07T23:32:11.526Z,62.50
2017-11-07T23:34:39.753Z,63.10
2017-11-07T23:37:07.210Z,63.10
2017-11-07T23:39:34.693Z,62.70
2017-11-07T23:42:02.905Z,62.40
2017-11-07T23:44:30.360Z,62.40
2017-11-07T23:46:57.819Z,62.70
2017-11-07T23:49:25.274Z,62.60
2017-11-07T23:51:52.740Z,62.90
2017-11-07T23:54:20.196Z,62.70
2017-11-07T23:56:47.660Z,63.10
2017-11-07T23:59:21.670Z,64.10
